Piperton, Tennessee
Current Conditions -  °F | °C
As of 9:50 AM on Monday 26 Jan 2015 (Local Time) from KOLV Reporting Station
Scattered Clouds Scattered Clouds  
Wind Chill: 34°   Ceiling: Unl
Heat Index: 39°   Visibility: 10mi
Dew Point: 32°   Wind: 8mph
Humidity: 75%   Direction: 330°NNW
Pressure: 30.12"   Gusts: NA
Location:  35.0418°N, 89.6647°W
Report Text: KOLV 261550Z 33007KT 10SM SCT023 04/00 A3012
Loading
Personal Weather Stations






























Interactive Weather Map New forecast layout! Learn more

10-Day Weather Forecast

Advertisements
Track Severe Weather on mobile